Time;durP1;ratioP1;P1;durP2;ratioP2;P2;SDS_P1;SDS_P2;PMS_P1;PMS_P2;Temp;Humidity;BMP_temperature;BMP_pressure;BME280_temperature;BME280_humidity;BME280_pressure;Samples;Min_cycle;Max_cycle;Signal;HPM_P1;HPM_P2
2021/12/06 00:04:43;;;;;;;7.80;4.57;;;5.00;94.70;;;;;;10142556;28;20033;-67
2021/12/06 00:09:34;;;;;;;5.88;4.45;;;5.10;94.70;;;;;;10118283;28;20111;-67
2021/12/06 00:14:31;;;;;;;9.60;4.72;;;5.20;94.70;;;;;;10120448;28;20044;-68
2021/12/06 00:19:21;;;;;;;6.85;4.22;;;5.20;94.80;;;;;;10110485;28;20414;-68
2021/12/06 00:24:12;;;;;;;8.10;5.13;;;5.20;94.80;;;;;;10119668;28;20033;-68
2021/12/06 00:29:03;;;;;;;8.50;4.97;;;5.30;94.70;;;;;;10112648;28;20055;-68
2021/12/06 00:33:59;;;;;;;6.75;4.68;;;5.10;95.00;;;;;;10120765;28;20556;-67
2021/12/06 00:38:49;;;;;;;8.60;5.82;;;5.10;95.00;;;;;;10114529;28;20048;-68
2021/12/06 00:43:40;;;;;;;10.00;4.93;;;5.10;94.90;;;;;;10116553;28;20542;-68
2021/12/06 00:48:31;;;;;;;6.25;4.07;;;4.90;95.10;;;;;;10120202;28;20044;-67
2021/12/06 00:53:21;;;;;;;7.63;4.43;;;4.70;95.50;;;;;;10114579;28;20131;-66
2021/12/06 00:58:12;;;;;;;7.70;4.50;;;4.70;95.60;;;;;;10114603;28;20025;-67
2021/12/06 01:03:10;;;;;;;9.35;5.00;;;4.50;95.70;;;;;;10112314;28;20064;-67
2021/12/06 01:08:01;;;;;;;8.13;4.60;;;4.40;95.70;;;;;;10112421;28;20758;-68
2021/12/06 01:12:52;;;;;;;6.78;4.93;;;4.50;95.60;;;;;;10122738;28;20091;-68
2021/12/06 01:17:42;;;;;;;9.52;4.40;;;4.50;95.50;;;;;;10106172;28;20045;-68
2021/12/06 01:28:19;;;;;;;5.97;4.88;;;4.40;95.30;;;;;;10103097;28;20251;-66
2021/12/06 01:44:16;;;;;;;8.10;4.35;;;4.30;95.50;;;;;;10113041;28;20366;-68
2021/12/06 01:49:08;;;;;;;5.60;3.92;;;4.40;95.50;;;;;;10117825;28;20029;-68
2021/12/06 01:53:59;;;;;;;11.32;6.32;;;4.40;95.70;;;;;;10116651;28;20570;-68
2021/12/06 01:58:49;;;;;;;7.30;3.92;;;4.50;95.40;;;;;;10120688;28;20057;-68
2021/12/06 02:03:40;;;;;;;8.93;4.57;;;4.50;95.50;;;;;;10127151;28;20052;-68
2021/12/06 02:08:31;;;;;;;7.88;4.72;;;4.40;95.80;;;;;;10110247;28;20017;-68
2021/12/06 02:13:22;;;;;;;6.55;4.32;;;4.40;95.70;;;;;;10117605;28;20033;-68
2021/12/06 02:18:28;;;;;;;5.20;3.15;;;4.40;95.80;;;;;;10118987;28;20072;-68
2021/12/06 02:23:18;;;;;;;6.10;3.33;;;4.40;95.70;;;;;;10127089;28;20542;-68
2021/12/06 02:28:09;;;;;;;5.45;3.13;;;4.30;95.80;;;;;;10119897;28;20137;-67
2021/12/06 02:33:00;;;;;;;7.43;3.40;;;4.40;96.20;;;;;;10130644;28;20488;-68
2021/12/06 02:37:51;;;;;;;7.32;3.80;;;4.30;96.00;;;;;;10122896;28;20383;-67
2021/12/06 02:42:45;;;;;;;6.47;3.38;;;4.40;95.80;;;;;;10119152;28;20685;-68
2021/12/06 02:47:35;;;;;;;5.32;2.83;;;4.50;95.80;;;;;;10127780;28;20601;-68
2021/12/06 02:52:26;;;;;;;4.50;2.97;;;4.50;95.70;;;;;;10123252;28;20173;-68
2021/12/06 02:57:22;;;;;;;4.88;2.92;;;4.70;95.60;;;;;;10120479;28;20427;-68
2021/12/06 03:02:17;;;;;;;4.22;2.75;;;4.80;95.60;;;;;;10115012;28;20508;-68
2021/12/06 03:07:10;;;;;;;5.43;2.72;;;4.70;95.60;;;;;;10110891;28;20021;-67
2021/12/06 03:12:02;;;;;;;2.90;2.05;;;4.60;95.90;;;;;;10116722;28;20387;-68
2021/12/06 03:16:55;;;;;;;4.63;2.83;;;4.50;95.90;;;;;;10113462;28;20564;-67
2021/12/06 03:21:46;;;;;;;4.88;3.00;;;4.60;96.00;;;;;;10125109;28;20037;-67
2021/12/06 03:26:39;;;;;;;6.40;2.70;;;4.70;95.70;;;;;;10117047;28;20059;-68
2021/12/06 03:31:30;;;;;;;7.00;2.67;;;4.80;95.50;;;;;;10135635;28;20562;-68
2021/12/06 03:36:23;;;;;;;5.90;3.17;;;4.70;95.60;;;;;;10119805;28;20280;-68
2021/12/06 03:41:16;;;;;;;5.80;3.03;;;4.80;95.60;;;;;;10124455;28;20114;-67
2021/12/06 03:46:09;;;;;;;6.95;2.92;;;4.80;95.40;;;;;;10112141;28;20047;-67
2021/12/06 03:51:03;;;;;;;8.13;3.85;;;4.80;95.50;;;;;;10112883;28;20491;-68
2021/12/06 03:55:54;;;;;;;6.22;3.10;;;4.70;95.60;;;;;;10129747;28;20368;-68
2021/12/06 04:00:45;;;;;;;8.68;3.95;;;4.70;95.50;;;;;;10125685;28;20036;-69
2021/12/06 04:05:36;;;;;;;6.75;4.05;;;4.70;95.60;;;;;;10128392;28;20037;-69
2021/12/06 04:10:27;;;;;;;9.38;4.65;;;4.70;95.60;;;;;;10127647;28;20491;-67
2021/12/06 04:15:18;;;;;;;8.98;4.53;;;4.70;95.60;;;;;;10126198;28;20534;-68
2021/12/06 04:20:10;;;;;;;9.57;4.15;;;4.60;95.50;;;;;;10122878;28;20048;-68
2021/12/06 04:25:02;;;;;;;7.85;3.78;;;4.70;95.60;;;;;;10110879;28;20472;-68
2021/12/06 04:29:53;;;;;;;7.13;4.35;;;4.80;95.50;;;;;;10109683;28;20029;-68
2021/12/06 04:34:44;;;;;;;8.07;4.22;;;4.70;95.50;;;;;;10115926;28;20086;-68
2021/12/06 04:39:35;;;;;;;9.32;3.75;;;4.70;95.60;;;;;;10116438;28;20024;-69
2021/12/06 04:44:27;;;;;;;6.22;3.67;;;4.70;95.60;;;;;;10106216;28;20344;-68
2021/12/06 04:49:18;;;;;;;8.15;4.43;;;4.60;95.60;;;;;;10120149;28;20021;-67
2021/12/06 04:54:09;;;;;;;6.35;3.53;;;4.60;95.50;;;;;;10115445;28;20398;-69
2021/12/06 04:59:14;;;;;;;8.05;4.07;;;4.60;95.60;;;;;;10121998;28;20034;-69
2021/12/06 05:04:14;;;;;;;5.20;3.15;;;4.60;95.50;;;;;;10116689;28;20287;-68
2021/12/06 05:09:17;;;;;;;8.57;3.90;;;4.60;95.50;;;;;;10116693;28;20097;-68
2021/12/06 05:14:08;;;;;;;6.07;3.20;;;4.60;95.50;;;;;;10109135;28;20048;-67
2021/12/06 05:18:59;;;;;;;6.07;3.47;;;4.60;95.60;;;;;;10119744;28;20021;-68
2021/12/06 05:23:50;;;;;;;4.70;3.17;;;4.70;95.60;;;;;;10128186;28;20036;-68
2021/12/06 05:28:43;;;;;;;4.80;2.22;;;4.70;95.50;;;;;;10123134;28;20047;-67
2021/12/06 05:33:34;;;;;;;4.75;2.65;;;4.70;95.60;;;;;;10134161;28;20406;-68
2021/12/06 05:38:28;;;;;;;3.30;2.20;;;4.70;95.70;;;;;;10122139;28;20020;-69
2021/12/06 05:43:19;;;;;;;4.55;3.03;;;4.80;95.60;;;;;;10126587;28;20060;-69
2021/12/06 05:48:10;;;;;;;5.53;2.75;;;4.90;95.50;;;;;;10118661;28;20529;-68
2021/12/06 05:53:01;;;;;;;4.03;2.40;;;4.90;95.50;;;;;;10128093;28;20028;-68
2021/12/06 05:57:52;;;;;;;4.07;2.20;;;4.90;95.50;;;;;;10120213;28;20029;-69
2021/12/06 06:02:43;;;;;;;4.53;2.38;;;4.90;95.40;;;;;;10127288;28;20094;-70
2021/12/06 06:07:34;;;;;;;5.85;2.50;;;5.00;95.40;;;;;;10122422;28;20020;-70
2021/12/06 06:12:25;;;;;;;6.93;3.33;;;5.20;95.20;;;;;;10127594;28;20069;-70
2021/12/06 06:17:19;;;;;;;7.95;5.20;;;5.10;95.20;;;;;;10112242;28;20099;-69
2021/12/06 06:22:10;;;;;;;10.00;4.55;;;5.00;95.40;;;;;;10124526;28;20028;-69
2021/12/06 06:27:01;;;;;;;6.78;4.32;;;4.90;95.50;;;;;;10128450;28;20071;-69
2021/12/06 06:31:52;;;;;;;6.82;4.28;;;5.00;95.50;;;;;;10120238;28;20024;-69
2021/12/06 06:36:43;;;;;;;10.68;5.63;;;5.10;95.30;;;;;;10114849;28;20064;-69
2021/12/06 06:41:35;;;;;;;9.57;5.53;;;5.00;95.30;;;;;;10124848;28;20433;-69
2021/12/06 06:46:26;;;;;;;11.70;6.13;;;5.00;95.50;;;;;;10108288;28;20474;-68
2021/12/06 06:51:16;;;;;;;12.80;5.55;;;5.00;95.40;;;;;;10123813;28;20021;-70
2021/12/06 06:56:07;;;;;;;12.57;6.55;;;5.00;95.50;;;;;;10109032;28;20402;-69
2021/12/06 07:00:59;;;;;;;10.45;6.03;;;5.00;95.40;;;;;;10117853;28;20478;-69
2021/12/06 07:05:50;;;;;;;11.40;5.95;;;4.90;95.60;;;;;;10121609;28;20055;-70
2021/12/06 07:10:40;;;;;;;14.73;6.63;;;5.00;95.60;;;;;;10114682;28;20037;-69
2021/12/06 07:15:34;;;;;;;15.38;6.78;;;5.10;95.60;;;;;;10068684;28;1175208;-69
2021/12/06 07:20:26;;;;;;;13.25;6.15;;;5.10;95.50;;;;;;10126457;28;20041;-68
2021/12/06 07:25:17;;;;;;;14.68;7.25;;;5.20;95.50;;;;;;10118592;28;20557;-70
2021/12/06 07:30:10;;;;;;;11.82;6.32;;;5.10;95.50;;;;;;10129141;28;20032;-68
2021/12/06 07:35:02;;;;;;;14.18;7.30;;;5.20;95.50;;;;;;10134551;28;20032;-69
2021/12/06 07:39:53;;;;;;;16.88;8.50;;;5.00;95.60;;;;;;10118546;28;20024;-69
2021/12/06 07:44:45;;;;;;;11.80;6.47;;;5.10;95.70;;;;;;10131091;28;20526;-72
2021/12/06 07:49:37;;;;;;;15.15;5.93;;;5.00;95.80;;;;;;10127922;28;20021;-69
2021/12/06 07:54:27;;;;;;;10.80;5.38;;;5.00;96.00;;;;;;10128349;28;20027;-69
2021/12/06 07:59:19;;;;;;;11.70;5.68;;;5.00;95.90;;;;;;10136472;28;20017;-68
2021/12/06 08:04:10;;;;;;;9.00;5.22;;;5.10;95.80;;;;;;10132220;28;20063;-70
2021/12/06 08:09:01;;;;;;;8.65;5.13;;;5.10;95.70;;;;;;10132008;28;20029;-68
2021/12/06 08:13:56;;;;;;;7.85;4.93;;;5.20;95.70;;;;;;10124486;28;20060;-70
2021/12/06 08:18:47;;;;;;;10.33;4.97;;;5.30;95.50;;;;;;10122930;28;20771;-68
2021/12/06 08:23:38;;;;;;;8.65;4.60;;;5.20;95.60;;;;;;10124317;28;20467;-67
2021/12/06 08:28:31;;;;;;;9.70;4.35;;;5.20;95.70;;;;;;10123924;28;20024;-66
2021/12/06 08:33:23;;;;;;;11.10;5.80;;;5.30;95.60;;;;;;10119231;28;20528;-73
2021/12/06 08:38:16;;;;;;;9.40;4.32;;;5.30;95.70;;;;;;10113632;28;20025;-66
2021/12/06 08:43:07;;;;;;;6.28;4.65;;;5.30;95.80;;;;;;10110882;28;20541;-64
2021/12/06 08:47:59;;;;;;;8.00;3.78;;;5.40;95.70;;;;;;10121703;28;20422;-67
2021/12/06 08:52:50;;;;;;;8.63;3.78;;;5.40;95.60;;;;;;10121038;28;20031;-67
2021/12/06 08:57:41;;;;;;;6.07;3.67;;;5.40;95.70;;;;;;10137066;28;20968;-66
2021/12/06 09:02:32;;;;;;;7.15;4.05;;;5.50;95.50;;;;;;10118390;28;20101;-69
2021/12/06 09:07:24;;;;;;;5.53;3.25;;;5.30;95.70;;;;;;10121695;28;20579;-68
2021/12/06 09:12:20;;;;;;;6.18;3.33;;;5.40;95.60;;;;;;10119642;28;20035;-71
2021/12/06 09:17:13;;;;;;;5.50;3.65;;;5.50;95.60;;;;;;10117105;28;20131;-70
2021/12/06 09:22:05;;;;;;;4.53;3.20;;;5.50;95.60;;;;;;10122594;28;20048;-69
2021/12/06 09:26:55;;;;;;;6.70;3.85;;;5.50;95.40;;;;;;10110778;28;20387;-64
2021/12/06 09:31:46;;;;;;;8.38;4.03;;;5.60;95.30;;;;;;10120523;28;20021;-67
2021/12/06 09:36:37;;;;;;;5.85;3.35;;;5.70;95.40;;;;;;10124562;28;20032;-67
2021/12/06 09:41:28;;;;;;;3.95;3.38;;;5.60;95.30;;;;;;10116606;28;20043;-65
2021/12/06 09:46:20;;;;;;;5.32;3.72;;;5.70;95.30;;;;;;10118303;28;20029;-71
2021/12/06 09:51:17;;;;;;;7.22;4.97;;;5.70;95.30;;;;;;10120778;28;20398;-69
2021/12/06 09:56:17;;;;;;;7.07;4.22;;;5.80;95.20;;;;;;10118407;28;20028;-70
2021/12/06 10:01:19;;;;;;;9.43;3.90;;;6.00;95.20;;;;;;10117436;28;20028;-73
2021/12/06 10:06:10;;;;;;;6.68;3.85;;;6.10;95.00;;;;;;10134134;28;20407;-69
2021/12/06 10:11:00;;;;;;;7.68;4.55;;;6.20;95.10;;;;;;10127191;28;20032;-72
2021/12/06 10:15:52;;;;;;;5.43;3.60;;;6.10;95.00;;;;;;10128557;28;20049;-72
2021/12/06 10:20:44;;;;;;;6.72;5.13;;;6.20;95.00;;;;;;10121802;28;20029;-68
2021/12/06 10:25:42;;;;;;;5.30;3.22;;;6.20;94.90;;;;;;10117760;28;20166;-70
2021/12/06 10:30:39;;;;;;;4.90;3.22;;;6.20;94.80;;;;;;10118227;28;20028;-73
2021/12/06 10:35:31;;;;;;;6.93;3.88;;;6.40;94.80;;;;;;10122065;28;20044;-69
2021/12/06 10:40:26;;;;;;;7.30;3.97;;;6.60;94.60;;;;;;10122256;28;20459;-73
2021/12/06 10:45:30;;;;;;;6.65;3.47;;;6.70;94.50;;;;;;10124533;28;20040;-72
2021/12/06 10:50:21;;;;;;;6.95;4.20;;;6.80;94.50;;;;;;10127143;28;20174;-70
2021/12/06 10:55:12;;;;;;;7.30;3.60;;;7.00;94.30;;;;;;10123619;28;20326;-73
2021/12/06 11:00:03;;;;;;;5.88;4.13;;;6.90;94.30;;;;;;10127735;28;20043;-73
2021/12/06 11:04:54;;;;;;;5.45;3.65;;;6.80;94.40;;;;;;10123213;28;20028;-71
2021/12/06 11:09:46;;;;;;;4.90;2.85;;;6.70;94.30;;;;;;10123473;28;20095;-68
2021/12/06 11:14:41;;;;;;;5.32;3.38;;;7.00;94.50;;;;;;10126785;28;20490;-70
2021/12/06 11:19:32;;;;;;;5.95;3.90;;;6.90;94.50;;;;;;10111441;28;20023;-67
2021/12/06 11:24:39;;;;;;;4.45;3.70;;;6.80;94.30;;;;;;10120164;28;20044;-71
2021/12/06 11:29:33;;;;;;;6.82;3.90;;;6.70;94.60;;;;;;10114828;28;20154;-73
2021/12/06 11:34:34;;;;;;;6.78;3.15;;;6.70;94.50;;;;;;10116014;28;20506;-69
2021/12/06 11:39:25;;;;;;;6.78;3.85;;;7.00;94.30;;;;;;10120064;28;20032;-71
2021/12/06 11:44:21;;;;;;;8.40;4.57;;;6.90;94.10;;;;;;10116622;28;20047;-74
2021/12/06 11:49:32;;;;;;;;;;;6.80;94.10;;;;;;10130383;28;20035;-75
2021/12/06 11:54:23;;;;;;;6.95;4.03;;;6.70;94.00;;;;;;10134830;28;19916;-72
2021/12/06 11:59:15;;;;;;;8.00;4.05;;;6.90;94.00;;;;;;10116196;28;20394;-72
2021/12/06 12:04:11;;;;;;;5.93;4.20;;;6.80;94.10;;;;;;10128324;28;20040;-71
2021/12/06 12:09:10;;;;;;;6.40;4.00;;;6.80;93.90;;;;;;10133396;28;20467;-72
2021/12/06 12:14:10;;;;;;;8.45;5.50;;;6.50;93.70;;;;;;10118692;28;20095;-72
2021/12/06 12:19:01;;;;;;;9.30;5.53;;;6.50;93.90;;;;;;10125388;28;20028;-72
2021/12/06 12:23:52;;;;;;;7.03;4.50;;;6.40;93.80;;;;;;10113806;28;20047;-70
2021/12/06 12:28:59;;;;;;;7.55;5.15;;;6.30;93.80;;;;;;10124683;28;20025;-72
2021/12/06 12:33:50;;;;;;;7.90;4.85;;;6.50;93.70;;;;;;10117293;28;20029;-76
2021/12/06 12:38:46;;;;;;;8.13;4.68;;;6.70;93.40;;;;;;10113884;28;20023;-75
2021/12/06 12:43:45;;;;;;;6.10;3.95;;;6.90;93.30;;;;;;10118468;28;20040;-74
2021/12/06 12:48:58;;;;;;;10.00;5.00;;;7.20;93.30;;;;;;10119036;28;20552;-75
2021/12/06 12:54:00;;;;;;;6.13;4.40;;;7.10;93.10;;;;;;10117633;28;20116;-74
2021/12/06 12:58:52;;;;;;;6.57;3.58;;;7.20;93.30;;;;;;10117139;28;20024;-75
2021/12/06 13:03:54;;;;;;;8.20;4.50;;;7.20;93.20;;;;;;10115101;28;20082;-75
2021/12/06 13:08:48;;;;;;;6.63;3.63;;;7.20;93.30;;;;;;10116085;28;20079;-73
2021/12/06 13:13:45;;;;;;;7.07;3.92;;;7.00;93.30;;;;;;10116056;28;20276;-71
2021/12/06 13:24:28;;;;;;;5.13;3.13;;;7.00;93.20;;;;;;10110838;28;20075;-70
2021/12/06 13:29:27;;;;;;;5.32;3.38;;;7.10;93.10;;;;;;10112838;28;20038;-64
2021/12/06 13:34:20;;;;;;;5.35;2.92;;;7.30;92.90;;;;;;10106491;28;20355;-67
2021/12/06 13:39:29;;;;;;;5.78;3.53;;;7.20;93.00;;;;;;10119927;28;20025;-69
2021/12/06 13:44:22;;;;;;;8.63;3.58;;;7.30;92.80;;;;;;10126503;28;20044;-68
2021/12/06 13:49:16;;;;;;;6.72;4.57;;;7.30;92.80;;;;;;10129290;28;20152;-70
2021/12/06 13:54:11;;;;;;;6.70;3.63;;;7.20;92.80;;;;;;10125334;28;20392;-70
2021/12/06 13:59:02;;;;;;;6.67;3.90;;;7.10;92.90;;;;;;10129455;28;20038;-69
2021/12/06 14:03:54;;;;;;;6.72;3.60;;;7.00;92.90;;;;;;10121793;28;20041;-71
2021/12/06 14:08:50;;;;;;;7.25;3.70;;;6.90;92.80;;;;;;10128680;28;20040;-65
2021/12/06 14:13:41;;;;;;;6.07;2.95;;;6.80;92.90;;;;;;10126369;28;20024;-66
2021/12/06 14:18:31;;;;;;;7.35;3.30;;;6.80;92.80;;;;;;10118532;28;20044;-68
2021/12/06 14:23:25;;;;;;;5.45;2.58;;;6.80;92.70;;;;;;10119435;28;20039;-67
2021/12/06 14:28:21;;;;;;;7.05;2.95;;;6.70;92.60;;;;;;10122000;28;20495;-66
2021/12/06 14:33:12;;;;;;;5.38;2.45;;;6.80;92.70;;;;;;10123513;28;20024;-67
2021/12/06 14:38:03;;;;;;;5.07;2.88;;;6.80;92.40;;;;;;10126661;28;20035;-63
2021/12/06 14:42:54;;;;;;;5.82;3.47;;;6.80;92.70;;;;;;10121281;28;20063;-68
2021/12/06 14:47:57;;;;;;;6.30;3.35;;;6.70;92.40;;;;;;10117909;28;20025;-68
2021/12/06 14:52:50;;;;;;;8.00;3.97;;;6.70;92.30;;;;;;10121463;28;20028;-71
2021/12/06 14:57:42;;;;;;;7.57;3.35;;;6.80;92.40;;;;;;10124533;28;20211;-69
2021/12/06 15:02:41;;;;;;;7.72;4.53;;;6.70;92.30;;;;;;10127853;28;20119;-67
2021/12/06 15:07:32;;;;;;;10.52;3.90;;;6.70;92.20;;;;;;10123196;28;20058;-68
2021/12/06 15:12:23;;;;;;;4.30;3.90;;;6.70;92.30;;;;;;10123534;28;20519;-70
2021/12/06 15:17:14;;;;;;;5.40;3.45;;;6.60;92.30;;;;;;10136160;28;20045;-68
2021/12/06 15:22:06;;;;;;;6.18;3.45;;;6.50;92.10;;;;;;10128074;28;20062;-70
2021/12/06 15:26:59;;;;;;;5.57;2.95;;;6.30;92.10;;;;;;10120272;28;20020;-73
2021/12/06 15:31:54;;;;;;;5.95;3.65;;;6.20;92.10;;;;;;10118367;28;20044;-72
2021/12/06 15:36:45;;;;;;;5.82;3.38;;;6.10;92.10;;;;;;10116118;28;20025;-69
2021/12/06 15:41:41;;;;;;;4.60;3.08;;;6.00;92.00;;;;;;10125688;28;20130;-67
2021/12/06 15:46:38;;;;;;;7.40;2.85;;;5.80;92.00;;;;;;10122793;28;20422;-70
2021/12/06 15:51:36;;;;;;;4.60;2.83;;;5.80;92.00;;;;;;10123367;28;20016;-70
2021/12/06 15:56:27;;;;;;;5.00;2.67;;;5.70;92.00;;;;;;10119080;28;20028;-75
2021/12/06 16:01:18;;;;;;;6.38;3.65;;;5.70;92.00;;;;;;10123058;28;20036;-71
2021/12/06 16:06:11;;;;;;;5.82;3.72;;;5.50;92.00;;;;;;10122888;28;20033;-70
2021/12/06 16:11:04;;;;;;;5.45;3.28;;;5.50;92.00;;;;;;10127310;28;20064;-68
2021/12/06 16:15:58;;;;;;;6.63;3.50;;;5.50;92.00;;;;;;10129275;28;20075;-69
2021/12/06 16:21:06;;;;;;;6.35;3.22;;;5.50;91.90;;;;;;10129805;28;20273;-71
2021/12/06 16:26:00;;;;;;;8.40;4.03;;;5.50;92.10;;;;;;10124583;28;20522;-67
2021/12/06 16:31:00;;;;;;;7.00;5.18;;;5.50;92.10;;;;;;10125522;28;20040;-66
2021/12/06 16:35:51;;;;;;;10.00;4.07;;;5.50;92.20;;;;;;10131547;28;20028;-69
2021/12/06 16:40:41;;;;;;;9.93;5.30;;;5.50;92.30;;;;;;10126863;28;20033;-71
2021/12/06 16:45:32;;;;;;;9.43;3.60;;;5.60;92.30;;;;;;10119723;28;20571;-69
2021/12/06 16:50:33;;;;;;;7.40;3.13;;;5.70;92.30;;;;;;10120881;28;20028;-68
2021/12/06 16:55:34;;;;;;;7.90;4.30;;;5.70;92.40;;;;;;10121563;28;20418;-72
2021/12/06 17:00:30;;;;;;;8.40;4.63;;;5.70;92.40;;;;;;10118727;28;20028;-75
2021/12/06 17:05:21;;;;;;;5.63;3.40;;;5.70;92.40;;;;;;10120875;28;20037;-74
2021/12/06 17:10:18;;;;;;;9.13;3.53;;;5.80;92.40;;;;;;10123357;28;20558;-73
2021/12/06 17:15:18;;;;;;;10.68;3.67;;;5.80;92.40;;;;;;10120157;28;20049;-71
2021/12/06 17:20:18;;;;;;;4.90;3.22;;;5.80;92.30;;;;;;10115768;28;20028;-66
2021/12/06 17:25:08;;;;;;;6.57;3.33;;;5.70;92.30;;;;;;10119561;28;20036;-67
2021/12/06 17:29:59;;;;;;;5.85;3.40;;;5.60;92.30;;;;;;10117823;28;20025;-66
2021/12/06 17:34:51;;;;;;;6.00;3.35;;;5.50;92.40;;;;;;10118440;28;20132;-72
2021/12/06 17:39:45;;;;;;;9.05;4.72;;;5.50;92.40;;;;;;10116372;28;20025;-70
2021/12/06 17:44:35;;;;;;;6.70;3.78;;;5.40;92.50;;;;;;10124190;28;20037;-74
2021/12/06 17:49:28;;;;;;;6.57;3.17;;;5.40;92.40;;;;;;10131523;28;20507;-71
2021/12/06 17:54:23;;;;;;;9.65;3.95;;;5.40;92.40;;;;;;10128985;28;20036;-70
2021/12/06 17:59:13;;;;;;;8.35;4.07;;;5.40;92.40;;;;;;10129283;28;20021;-73
2021/12/06 18:04:16;;;;;;;6.53;3.22;;;5.40;92.40;;;;;;10116203;28;20044;-75
2021/12/06 18:09:07;;;;;;;4.68;2.92;;;5.40;92.40;;;;;;10130282;28;20187;-71
2021/12/06 18:13:58;;;;;;;7.88;3.80;;;5.40;92.40;;;;;;10119352;28;20091;-69
2021/12/06 18:18:49;;;;;;;6.80;3.08;;;5.40;92.40;;;;;;10128085;28;20128;-72
2021/12/06 18:23:40;;;;;;;6.85;4.22;;;5.30;92.50;;;;;;10118167;28;20569;-72
2021/12/06 18:28:34;;;;;;;6.32;4.03;;;5.30;92.50;;;;;;10112575;28;20601;-73
2021/12/06 18:33:24;;;;;;;6.72;4.15;;;5.20;92.40;;;;;;10125030;28;20194;-75
2021/12/06 18:38:21;;;;;;;6.10;3.47;;;5.20;92.40;;;;;;10126714;28;20170;-73
2021/12/06 18:43:21;;;;;;;;;;;5.20;92.40;;;;;;10128418;28;20036;-73
2021/12/06 18:48:11;;;;;;;5.35;2.72;;;5.10;92.40;;;;;;10124886;28;20355;-70
2021/12/06 18:53:08;;;;;;;5.65;3.40;;;5.10;92.40;;;;;;10118764;28;20036;-70
2021/12/06 18:57:59;;;;;;;5.63;3.08;;;5.10;92.50;;;;;;10112586;28;20120;-70
2021/12/06 19:02:50;;;;;;;9.98;3.63;;;5.00;92.60;;;;;;10122464;28;20135;-72
2021/12/06 19:07:41;;;;;;;5.47;3.10;;;5.00;92.60;;;;;;10123133;28;20563;-71
2021/12/06 19:12:31;;;;;;;7.30;3.45;;;5.10;92.60;;;;;;10117526;28;20052;-76
2021/12/06 19:17:25;;;;;;;8.27;3.33;;;5.00;92.60;;;;;;10122770;28;20043;-74
2021/12/06 19:22:17;;;;;;;6.50;3.50;;;5.10;92.60;;;;;;10125211;28;20444;-72
2021/12/06 19:27:08;;;;;;;7.60;3.75;;;4.90;92.70;;;;;;10125635;28;20288;-72
2021/12/06 19:31:59;;;;;;;6.40;3.25;;;4.90;92.70;;;;;;10127466;28;20040;-72
2021/12/06 19:36:50;;;;;;;5.07;2.70;;;4.90;92.70;;;;;;10126489;28;20032;-74
2021/12/06 19:41:52;;;;;;;6.00;3.05;;;4.90;92.80;;;;;;10112495;28;20033;-72
2021/12/06 19:46:43;;;;;;;4.32;2.70;;;4.90;92.70;;;;;;10126916;28;20067;-71
2021/12/06 19:51:34;;;;;;;7.20;3.42;;;4.90;92.80;;;;;;10127798;28;20055;-72
2021/12/06 19:56:25;;;;;;;4.85;2.70;;;4.90;92.80;;;;;;10124736;28;20522;-73
2021/12/06 20:01:16;;;;;;;5.65;2.08;;;4.90;92.80;;;;;;10134338;28;20312;-71
2021/12/06 20:06:11;;;;;;;3.65;2.42;;;4.80;92.80;;;;;;10123346;28;20040;-74
2021/12/06 20:11:05;;;;;;;4.27;1.63;;;4.90;92.80;;;;;;10130395;28;20024;-69
2021/12/06 20:15:57;;;;;;;3.53;2.42;;;4.80;92.80;;;;;;10123178;28;20037;-71
2021/12/06 20:20:48;;;;;;;6.07;2.28;;;4.80;92.70;;;;;;10120765;28;20025;-75
2021/12/06 20:25:39;;;;;;;4.75;2.97;;;4.80;92.80;;;;;;10131593;28;20051;-70
2021/12/06 20:30:30;;;;;;;3.25;2.33;;;4.90;92.80;;;;;;10118654;28;20024;-74
2021/12/06 20:35:21;;;;;;;2.80;1.88;;;4.90;92.80;;;;;;10112908;28;20102;-73
2021/12/06 20:40:13;;;;;;;3.58;2.20;;;4.90;92.70;;;;;;10124714;28;20074;-72
2021/12/06 20:45:05;;;;;;;4.28;2.50;;;4.90;92.80;;;;;;10101756;28;20049;-71
2021/12/06 20:50:00;;;;;;;5.57;3.13;;;5.00;92.60;;;;;;10120468;28;20020;-70
2021/12/06 20:54:54;;;;;;;3.05;2.22;;;5.00;92.70;;;;;;10113304;28;20039;-70
2021/12/06 20:59:44;;;;;;;3.63;2.45;;;5.00;92.70;;;;;;10112060;28;20017;-69
2021/12/06 21:04:35;;;;;;;2.75;1.73;;;5.10;92.70;;;;;;10126186;28;20304;-69
2021/12/06 21:09:32;;;;;;;1.88;1.73;;;5.00;92.70;;;;;;10111361;28;20036;-73
2021/12/06 21:19:32;;;;;;;3.65;2.22;;;5.10;92.70;;;;;;10110148;28;20024;-73
2021/12/06 21:24:26;;;;;;;5.30;2.53;;;5.20;92.80;;;;;;10110787;28;20095;-71
2021/12/06 21:29:17;;;;;;;3.78;1.70;;;5.10;92.70;;;;;;10121488;28;20550;-73
2021/12/06 21:34:08;;;;;;;4.90;2.45;;;5.10;92.60;;;;;;10111930;28;20016;-71
2021/12/06 21:38:59;;;;;;;3.33;2.55;;;5.10;92.60;;;;;;10118439;28;20030;-74
2021/12/06 21:43:51;;;;;;;4.10;2.05;;;5.00;92.60;;;;;;10102924;28;20033;-75
2021/12/06 21:48:43;;;;;;;2.83;2.17;;;4.90;92.60;;;;;;10112997;28;20418;-75
2021/12/06 21:53:35;;;;;;;2.33;1.83;;;4.90;92.60;;;;;;10110343;28;20032;-75
2021/12/06 21:58:26;;;;;;;4.63;2.00;;;4.90;92.60;;;;;;10105115;28;20021;-74
2021/12/06 22:03:25;;;;;;;5.43;2.38;;;5.00;92.60;;;;;;10114760;28;20045;-71
2021/12/06 22:08:20;;;;;;;2.75;1.77;;;5.00;92.40;;;;;;10127214;28;20127;-72
2021/12/06 22:13:10;;;;;;;3.03;1.73;;;5.10;92.30;;;;;;10111150;28;20565;-71
2021/12/06 22:18:02;;;;;;;2.13;1.42;;;5.10;92.40;;;;;;10117186;28;20055;-73
2021/12/06 22:22:54;;;;;;;2.50;1.77;;;5.10;92.30;;;;;;10124121;28;20036;-72
2021/12/06 22:27:51;;;;;;;4.20;2.25;;;5.10;92.40;;;;;;10118286;28;20020;-72
2021/12/06 22:32:47;;;;;;;2.92;1.85;;;5.00;92.40;;;;;;10139313;28;20039;-73
2021/12/06 22:37:38;;;;;;;4.70;2.13;;;5.00;92.30;;;;;;10127639;28;20341;-73
2021/12/06 22:42:28;;;;;;;2.83;1.65;;;5.10;92.30;;;;;;10130750;28;20329;-72
2021/12/06 22:47:19;;;;;;;2.28;1.65;;;5.10;92.50;;;;;;10115688;28;20051;-72
2021/12/06 22:52:10;;;;;;;3.13;1.52;;;5.10;92.20;;;;;;10113878;28;20040;-73
2021/12/06 22:57:00;;;;;;;1.85;1.20;;;5.00;92.20;;;;;;10119740;28;20032;-73
2021/12/06 23:01:51;;;;;;;3.20;2.00;;;5.00;92.30;;;;;;10112285;28;20078;-73
2021/12/06 23:06:43;;;;;;;3.63;1.77;;;5.00;92.20;;;;;;10115938;28;20033;-72
2021/12/06 23:11:36;;;;;;;1.73;1.58;;;5.00;92.30;;;;;;10130036;28;20021;-72
2021/12/06 23:16:27;;;;;;;4.25;1.67;;;5.00;92.30;;;;;;10128498;28;20064;-73
2021/12/06 23:21:18;;;;;;;2.45;1.05;;;4.80;92.40;;;;;;10116295;28;20080;-73
2021/12/06 23:26:09;;;;;;;2.45;1.45;;;4.80;92.50;;;;;;10132460;28;20229;-72
2021/12/06 23:31:03;;;;;;;2.53;1.02;;;4.70;92.60;;;;;;10122957;28;20621;-73
2021/12/06 23:35:55;;;;;;;3.00;1.92;;;4.80;92.60;;;;;;10115717;28;20029;-72
2021/12/06 23:40:57;;;;;;;3.60;1.65;;;4.80;92.60;;;;;;10127105;28;20292;-73
2021/12/06 23:50:58;;;;;;;1.48;1.15;;;4.70;92.60;;;;;;10128392;28;20076;-72
2021/12/06 23:55:49;;;;;;;2.00;0.88;;;4.60;92.90;;;;;;10121759;28;20124;-71
